Terminal Aerodrome Forecast
Issued by NWS

Current Version | Previous Version | Graphics & Text | Print | Product List | Glossary On
Versions: 1 2 3 4 5 6 7 8 9 10 11 12 13 14 15 16 17
259
FTUS41 KPBZ 232331
TAFHLG
TAF
KHLG 232331Z 2400/2424 22005KT P6SM -SHRA SCT060 BKN120
      TEMPO 2400/2402 BKN015
     FM240600 28010KT P6SM OVC007
     FM240800 29009KT P6SM BKN015
     FM241000 29008KT P6SM SCT250
     FM241700 27015G22KT P6SM BKN050
     FM242300 29013KT P6SM SCT250=

USA.gov is the U.S. government's official web portal to all federal, state and local government web resources and services.